Time;durP1;ratioP1;P1;durP2;ratioP2;P2;SDS_P1;SDS_P2;PMS_P1;PMS_P2;Temp;Humidity;BMP_temperature;BMP_pressure;BME280_temperature;BME280_humidity;BME280_pressure;Samples;Min_cycle;Max_cycle;Signal;HPM_P1;HPM_P2
2023/07/03 17:30:34;;;;;;;5.65;1.90;;;20.40;68.50;;;;;;5129129;27;20580;-61
2023/07/03 17:32:59;;;;;;;2.97;1.52;;;20.20;70.30;;;;;;5140183;27;20037;-62
2023/07/03 17:37:37;;;;;;;3.47;1.60;;;20.30;71.30;;;;;;5012125;27;2042064;-66
2023/07/03 17:40:03;;;;;;;3.47;1.30;;;20.40;70.60;;;;;;5067982;28;20032;-66
2023/07/03 17:42:28;;;;;;;6.40;1.70;;;20.60;70.70;;;;;;5089189;28;20096;-68
2023/07/03 17:44:54;;;;;;;4.32;2.10;;;20.60;70.80;;;;;;5070033;28;20020;-65
2023/07/03 17:47:19;;;;;;;6.18;1.88;;;20.60;70.70;;;;;;5089791;28;20379;-62
2023/07/03 17:49:45;;;;;;;3.45;1.48;;;20.50;70.60;;;;;;5089477;28;20427;-64
2023/07/03 17:52:11;;;;;;;7.07;1.77;;;20.50;70.80;;;;;;5070492;28;20111;-64
2023/07/03 17:54:39;;;;;;;4.47;1.75;;;20.40;70.40;;;;;;5071383;28;20115;-66
2023/07/03 17:57:04;;;;;;;5.57;1.75;;;20.40;70.80;;;;;;5069955;28;20028;-63
2023/07/03 17:59:30;;;;;;;5.60;2.25;;;20.30;71.00;;;;;;5089715;28;20031;-67
2023/07/03 18:01:56;;;;;;;6.22;1.50;;;20.30;71.20;;;;;;5070924;28;20344;-63
2023/07/03 18:04:22;;;;;;;3.55;1.50;;;20.30;71.50;;;;;;5088744;28;20468;-63
2023/07/03 18:06:47;;;;;;;4.35;1.50;;;20.30;71.10;;;;;;5070384;28;20468;-63
2023/07/03 18:09:15;;;;;;;5.10;1.92;;;20.30;71.40;;;;;;5088983;28;20035;-64
2023/07/03 18:11:41;;;;;;;7.70;2.00;;;20.30;71.90;;;;;;5070021;28;20020;-63
2023/07/03 18:14:07;;;;;;;6.03;1.98;;;20.30;72.10;;;;;;5089505;28;20020;-63
2023/07/03 18:16:33;;;;;;;5.68;1.80;;;20.30;72.10;;;;;;5073798;28;20032;-63
2023/07/03 18:18:59;;;;;;;6.10;2.03;;;20.20;72.40;;;;;;5088534;28;20455;-64
2023/07/03 18:21:24;;;;;;;9.20;2.20;;;20.20;72.60;;;;;;5089859;28;20028;-64
2023/07/03 18:23:50;;;;;;;4.63;2.28;;;20.20;72.60;;;;;;5088293;28;20054;-63
2023/07/03 18:26:16;;;;;;;6.35;2.00;;;20.10;72.80;;;;;;5088664;28;20032;-63
2023/07/03 18:28:42;;;;;;;5.72;1.85;;;20.10;73.00;;;;;;5088140;28;20062;-63
2023/07/03 18:31:07;;;;;;;8.65;3.58;;;20.10;73.20;;;;;;5070205;28;20089;-65
2023/07/03 18:33:34;;;;;;;6.20;1.90;;;20.10;73.60;;;;;;5070299;28;20039;-66
2023/07/03 18:36:00;;;;;;;4.13;1.73;;;20.10;73.70;;;;;;5088339;28;20111;-65
2023/07/03 18:38:26;;;;;;;7.28;1.90;;;20.10;73.70;;;;;;5070671;28;20135;-68
2023/07/03 18:40:52;;;;;;;5.78;1.90;;;20.10;73.90;;;;;;5067550;28;20535;-66
2023/07/03 18:43:18;;;;;;;7.45;1.83;;;20.10;74.10;;;;;;5070464;28;20016;-68
2023/07/03 18:45:46;;;;;;;7.63;2.50;;;20.20;74.00;;;;;;5088151;28;20036;-67
2023/07/03 18:48:12;;;;;;;4.18;1.60;;;20.20;74.10;;;;;;5060878;28;20012;-65
2023/07/03 18:50:38;;;;;;;5.65;1.70;;;20.20;74.10;;;;;;5056952;28;20476;-66
2023/07/03 18:53:05;;;;;;;3.97;1.88;;;20.20;74.30;;;;;;5074760;28;20027;-68
2023/07/03 18:55:31;;;;;;;8.00;1.85;;;20.20;74.50;;;;;;5074135;28;20039;-67
2023/07/03 18:57:58;;;;;;;6.57;1.95;;;20.20;74.70;;;;;;5074293;28;20024;-65
2023/07/03 19:00:24;;;;;;;4.70;1.73;;;20.20;74.60;;;;;;5073018;28;20024;-66
2023/07/03 19:02:50;;;;;;;4.18;1.75;;;20.10;75.10;;;;;;5074307;28;20109;-65
2023/07/03 19:05:16;;;;;;;5.18;1.92;;;20.10;75.50;;;;;;5056519;28;20117;-64
2023/07/03 19:07:44;;;;;;;6.47;2.13;;;20.00;75.70;;;;;;5073716;28;20097;-64
2023/07/03 19:10:10;;;;;;;4.53;1.98;;;20.00;75.90;;;;;;5075516;28;20388;-64
2023/07/03 19:12:36;;;;;;;10.07;2.58;;;19.90;75.90;;;;;;5057142;28;20067;-65
2023/07/03 19:15:03;;;;;;;5.82;2.22;;;19.90;76.30;;;;;;5074190;28;20028;-65
2023/07/03 19:17:29;;;;;;;6.40;2.22;;;19.80;76.30;;;;;;5074356;28;20431;-64
2023/07/03 19:19:55;;;;;;;7.78;2.20;;;19.80;76.50;;;;;;5074749;28;20020;-64
